sensor_id;sensor_type;location;lat;lon;timestamp;P1;durP1;ratioP1;P2;durP2;ratioP2
14847;SDS011;7516;43.570;1.448;2023-06-14T00:01:19;2.60;;;1.70;;
14847;SDS011;7516;43.570;1.448;2023-06-14T00:03:47;2.38;;;1.65;;
14847;SDS011;7516;43.570;1.448;2023-06-14T00:06:14;4.65;;;1.80;;
14847;SDS011;7516;43.570;1.448;2023-06-14T00:08:42;1.70;;;1.60;;
14847;SDS011;7516;43.570;1.448;2023-06-14T00:11:09;2.08;;;1.60;;
14847;SDS011;7516;43.570;1.448;2023-06-14T00:13:36;1.80;;;1.40;;
14847;SDS011;7516;43.570;1.448;2023-06-14T00:16:04;1.90;;;1.55;;
14847;SDS011;7516;43.570;1.448;2023-06-14T00:18:32;2.70;;;1.67;;
14847;SDS011;7516;43.570;1.448;2023-06-14T00:20:59;2.58;;;1.63;;
14847;SDS011;7516;43.570;1.448;2023-06-14T00:23:27;2.80;;;1.83;;
14847;SDS011;7516;43.570;1.448;2023-06-14T00:25:54;2.78;;;1.80;;
14847;SDS011;7516;43.570;1.448;2023-06-14T00:28:22;2.28;;;1.63;;
14847;SDS011;7516;43.570;1.448;2023-06-14T00:30:49;2.97;;;1.90;;
14847;SDS011;7516;43.570;1.448;2023-06-14T00:33:16;3.10;;;2.10;;
14847;SDS011;7516;43.570;1.448;2023-06-14T00:35:45;2.58;;;1.67;;
14847;SDS011;7516;43.570;1.448;2023-06-14T00:38:13;2.65;;;2.00;;
14847;SDS011;7516;43.570;1.448;2023-06-14T00:40:41;3.17;;;2.20;;
14847;SDS011;7516;43.570;1.448;2023-06-14T00:43:08;3.10;;;2.08;;
14847;SDS011;7516;43.570;1.448;2023-06-14T00:45:36;3.08;;;2.55;;
14847;SDS011;7516;43.570;1.448;2023-06-14T00:48:03;3.45;;;2.25;;
14847;SDS011;7516;43.570;1.448;2023-06-14T00:50:31;3.15;;;2.78;;
14847;SDS011;7516;43.570;1.448;2023-06-14T00:53:00;6.63;;;2.53;;
14847;SDS011;7516;43.570;1.448;2023-06-14T00:55:28;3.50;;;2.42;;
14847;SDS011;7516;43.570;1.448;2023-06-14T00:57:55;3.60;;;2.90;;
14847;SDS011;7516;43.570;1.448;2023-06-14T01:00:23;4.18;;;2.60;;
14847;SDS011;7516;43.570;1.448;2023-06-14T01:02:50;5.43;;;3.30;;
14847;SDS011;7516;43.570;1.448;2023-06-14T01:05:17;3.63;;;3.00;;
14847;SDS011;7516;43.570;1.448;2023-06-14T01:07:48;3.42;;;3.13;;
14847;SDS011;7516;43.570;1.448;2023-06-14T01:10:25;4.40;;;2.80;;
14847;SDS011;7516;43.570;1.448;2023-06-14T01:12:56;4.90;;;3.17;;
14847;SDS011;7516;43.570;1.448;2023-06-14T01:15:25;2.97;;;2.67;;
14847;SDS011;7516;43.570;1.448;2023-06-14T01:17:54;3.80;;;3.22;;
14847;SDS011;7516;43.570;1.448;2023-06-14T01:20:28;3.35;;;2.95;;
14847;SDS011;7516;43.570;1.448;2023-06-14T01:22:57;4.72;;;3.80;;
14847;SDS011;7516;43.570;1.448;2023-06-14T01:25:25;6.07;;;3.50;;
14847;SDS011;7516;43.570;1.448;2023-06-14T01:27:53;4.68;;;3.67;;
14847;SDS011;7516;43.570;1.448;2023-06-14T01:30:22;4.60;;;3.55;;
14847;SDS011;7516;43.570;1.448;2023-06-14T01:32:50;6.45;;;3.22;;
14847;SDS011;7516;43.570;1.448;2023-06-14T01:35:18;4.38;;;3.25;;
14847;SDS011;7516;43.570;1.448;2023-06-14T01:37:46;5.25;;;3.30;;
14847;SDS011;7516;43.570;1.448;2023-06-14T01:40:15;4.25;;;3.70;;
14847;SDS011;7516;43.570;1.448;2023-06-14T01:42:44;4.50;;;3.97;;
14847;SDS011;7516;43.570;1.448;2023-06-14T01:45:12;4.32;;;3.90;;
14847;SDS011;7516;43.570;1.448;2023-06-14T01:47:40;4.15;;;3.75;;
14847;SDS011;7516;43.570;1.448;2023-06-14T01:50:08;4.38;;;3.83;;
14847;SDS011;7516;43.570;1.448;2023-06-14T01:52:36;6.10;;;3.75;;
14847;SDS011;7516;43.570;1.448;2023-06-14T01:55:03;4.18;;;3.78;;
14847;SDS011;7516;43.570;1.448;2023-06-14T01:57:32;4.63;;;3.83;;
14847;SDS011;7516;43.570;1.448;2023-06-14T02:00:00;4.32;;;3.92;;
14847;SDS011;7516;43.570;1.448;2023-06-14T02:02:28;7.28;;;3.90;;
14847;SDS011;7516;43.570;1.448;2023-06-14T02:04:55;6.32;;;4.47;;
14847;SDS011;7516;43.570;1.448;2023-06-14T02:07:23;7.05;;;4.55;;
14847;SDS011;7516;43.570;1.448;2023-06-14T02:09:50;4.38;;;3.97;;
14847;SDS011;7516;43.570;1.448;2023-06-14T02:12:17;5.30;;;3.70;;
14847;SDS011;7516;43.570;1.448;2023-06-14T02:14:46;5.95;;;4.10;;
14847;SDS011;7516;43.570;1.448;2023-06-14T02:17:13;5.57;;;3.90;;
14847;SDS011;7516;43.570;1.448;2023-06-14T02:19:41;4.85;;;4.03;;
14847;SDS011;7516;43.570;1.448;2023-06-14T02:22:08;4.38;;;3.90;;
14847;SDS011;7516;43.570;1.448;2023-06-14T02:24:35;5.47;;;4.13;;
14847;SDS011;7516;43.570;1.448;2023-06-14T02:27:04;4.78;;;4.22;;
14847;SDS011;7516;43.570;1.448;2023-06-14T02:29:31;5.78;;;4.10;;
14847;SDS011;7516;43.570;1.448;2023-06-14T02:32:00;6.13;;;3.90;;
14847;SDS011;7516;43.570;1.448;2023-06-14T02:34:27;5.57;;;3.75;;
14847;SDS011;7516;43.570;1.448;2023-06-14T02:36:54;5.82;;;3.72;;
14847;SDS011;7516;43.570;1.448;2023-06-14T02:39:22;6.47;;;3.78;;
14847;SDS011;7516;43.570;1.448;2023-06-14T02:41:49;5.22;;;4.07;;
14847;SDS011;7516;43.570;1.448;2023-06-14T02:44:17;5.57;;;4.25;;
14847;SDS011;7516;43.570;1.448;2023-06-14T02:46:44;4.88;;;3.97;;
14847;SDS011;7516;43.570;1.448;2023-06-14T02:49:13;4.63;;;4.18;;
14847;SDS011;7516;43.570;1.448;2023-06-14T02:51:40;6.10;;;4.07;;
14847;SDS011;7516;43.570;1.448;2023-06-14T02:54:07;4.30;;;3.90;;
14847;SDS011;7516;43.570;1.448;2023-06-14T02:56:35;6.15;;;4.05;;
14847;SDS011;7516;43.570;1.448;2023-06-14T02:59:02;4.47;;;3.85;;
14847;SDS011;7516;43.570;1.448;2023-06-14T03:01:29;5.10;;;4.00;;
14847;SDS011;7516;43.570;1.448;2023-06-14T03:03:59;4.68;;;4.07;;
14847;SDS011;7516;43.570;1.448;2023-06-14T03:06:29;4.00;;;3.58;;
14847;SDS011;7516;43.570;1.448;2023-06-14T03:08:57;4.00;;;3.60;;
14847;SDS011;7516;43.570;1.448;2023-06-14T03:11:26;4.45;;;4.05;;
14847;SDS011;7516;43.570;1.448;2023-06-14T03:13:53;4.88;;;4.10;;
14847;SDS011;7516;43.570;1.448;2023-06-14T03:16:21;5.07;;;4.38;;
14847;SDS011;7516;43.570;1.448;2023-06-14T03:18:49;4.90;;;4.38;;
14847;SDS011;7516;43.570;1.448;2023-06-14T03:21:16;5.80;;;4.47;;
14847;SDS011;7516;43.570;1.448;2023-06-14T03:23:46;6.13;;;4.20;;
14847;SDS011;7516;43.570;1.448;2023-06-14T03:26:13;9.10;;;4.20;;
14847;SDS011;7516;43.570;1.448;2023-06-14T03:28:43;4.40;;;4.00;;
14847;SDS011;7516;43.570;1.448;2023-06-14T03:31:10;6.30;;;4.55;;
14847;SDS011;7516;43.570;1.448;2023-06-14T03:33:37;5.20;;;4.30;;
14847;SDS011;7516;43.570;1.448;2023-06-14T03:36:05;4.55;;;4.05;;
14847;SDS011;7516;43.570;1.448;2023-06-14T03:38:33;5.38;;;3.95;;
14847;SDS011;7516;43.570;1.448;2023-06-14T03:41:01;6.53;;;4.20;;
14847;SDS011;7516;43.570;1.448;2023-06-14T03:43:29;4.30;;;3.90;;
14847;SDS011;7516;43.570;1.448;2023-06-14T03:45:56;4.60;;;4.00;;
14847;SDS011;7516;43.570;1.448;2023-06-14T03:48:23;4.82;;;4.15;;
14847;SDS011;7516;43.570;1.448;2023-06-14T03:50:51;5.22;;;4.47;;
14847;SDS011;7516;43.570;1.448;2023-06-14T03:53:20;6.25;;;4.35;;
14847;SDS011;7516;43.570;1.448;2023-06-14T03:55:48;7.78;;;4.45;;
14847;SDS011;7516;43.570;1.448;2023-06-14T03:58:18;5.82;;;4.55;;
14847;SDS011;7516;43.570;1.448;2023-06-14T04:00:46;5.97;;;4.70;;
14847;SDS011;7516;43.570;1.448;2023-06-14T04:03:13;7.85;;;4.57;;
14847;SDS011;7516;43.570;1.448;2023-06-14T04:05:41;11.68;;;5.50;;
14847;SDS011;7516;43.570;1.448;2023-06-14T04:08:09;8.75;;;4.43;;
14847;SDS011;7516;43.570;1.448;2023-06-14T04:10:39;6.70;;;4.72;;
14847;SDS011;7516;43.570;1.448;2023-06-14T04:13:06;6.35;;;4.40;;
14847;SDS011;7516;43.570;1.448;2023-06-14T04:15:38;5.57;;;4.50;;
14847;SDS011;7516;43.570;1.448;2023-06-14T04:18:08;5.10;;;4.57;;
14847;SDS011;7516;43.570;1.448;2023-06-14T04:20:36;6.32;;;5.40;;
14847;SDS011;7516;43.570;1.448;2023-06-14T04:23:13;6.25;;;4.82;;
14847;SDS011;7516;43.570;1.448;2023-06-14T04:25:42;8.32;;;5.30;;
14847;SDS011;7516;43.570;1.448;2023-06-14T04:28:12;7.43;;;5.20;;
14847;SDS011;7516;43.570;1.448;2023-06-14T04:30:42;7.50;;;5.40;;
14847;SDS011;7516;43.570;1.448;2023-06-14T04:33:09;7.32;;;5.85;;
14847;SDS011;7516;43.570;1.448;2023-06-14T04:35:37;5.88;;;5.10;;
14847;SDS011;7516;43.570;1.448;2023-06-14T04:38:05;5.75;;;5.25;;
14847;SDS011;7516;43.570;1.448;2023-06-14T04:40:34;7.38;;;6.47;;
14847;SDS011;7516;43.570;1.448;2023-06-14T04:43:07;8.55;;;6.10;;
14847;SDS011;7516;43.570;1.448;2023-06-14T04:45:37;7.70;;;6.00;;
14847;SDS011;7516;43.570;1.448;2023-06-14T04:48:06;8.13;;;5.65;;
14847;SDS011;7516;43.570;1.448;2023-06-14T04:50:33;9.75;;;6.35;;
14847;SDS011;7516;43.570;1.448;2023-06-14T04:53:01;10.13;;;7.07;;
14847;SDS011;7516;43.570;1.448;2023-06-14T04:55:28;10.60;;;6.80;;
14847;SDS011;7516;43.570;1.448;2023-06-14T04:57:56;7.45;;;6.70;;
14847;SDS011;7516;43.570;1.448;2023-06-14T05:00:23;8.00;;;7.03;;
14847;SDS011;7516;43.570;1.448;2023-06-14T05:02:50;9.85;;;8.63;;
14847;SDS011;7516;43.570;1.448;2023-06-14T05:05:19;8.77;;;7.55;;
14847;SDS011;7516;43.570;1.448;2023-06-14T05:07:46;9.25;;;7.68;;
14847;SDS011;7516;43.570;1.448;2023-06-14T05:10:13;8.43;;;6.82;;
14847;SDS011;7516;43.570;1.448;2023-06-14T05:12:41;7.93;;;7.10;;
14847;SDS011;7516;43.570;1.448;2023-06-14T05:15:09;12.13;;;8.00;;
14847;SDS011;7516;43.570;1.448;2023-06-14T05:17:36;11.68;;;8.80;;
14847;SDS011;7516;43.570;1.448;2023-06-14T05:20:06;10.43;;;8.05;;
14847;SDS011;7516;43.570;1.448;2023-06-14T05:22:36;11.70;;;8.23;;
14847;SDS011;7516;43.570;1.448;2023-06-14T05:25:04;11.63;;;9.00;;
14847;SDS011;7516;43.570;1.448;2023-06-14T05:27:31;9.70;;;8.18;;
14847;SDS011;7516;43.570;1.448;2023-06-14T05:30:00;10.10;;;7.88;;
14847;SDS011;7516;43.570;1.448;2023-06-14T05:32:28;13.90;;;8.07;;
14847;SDS011;7516;43.570;1.448;2023-06-14T05:34:56;11.35;;;8.70;;
14847;SDS011;7516;43.570;1.448;2023-06-14T05:37:23;15.38;;;9.15;;
14847;SDS011;7516;43.570;1.448;2023-06-14T05:39:52;12.30;;;9.80;;
14847;SDS011;7516;43.570;1.448;2023-06-14T05:42:19;10.82;;;9.02;;
14847;SDS011;7516;43.570;1.448;2023-06-14T05:44:46;11.65;;;8.73;;
14847;SDS011;7516;43.570;1.448;2023-06-14T05:47:14;10.07;;;9.07;;
14847;SDS011;7516;43.570;1.448;2023-06-14T05:49:41;10.50;;;8.65;;
14847;SDS011;7516;43.570;1.448;2023-06-14T05:52:09;11.35;;;8.43;;
14847;SDS011;7516;43.570;1.448;2023-06-14T05:54:38;10.93;;;8.82;;
14847;SDS011;7516;43.570;1.448;2023-06-14T05:57:08;14.57;;;9.25;;
14847;SDS011;7516;43.570;1.448;2023-06-14T05:59:35;10.98;;;9.25;;
14847;SDS011;7516;43.570;1.448;2023-06-14T06:02:03;11.23;;;8.23;;
14847;SDS011;7516;43.570;1.448;2023-06-14T06:04:30;11.55;;;8.40;;
14847;SDS011;7516;43.570;1.448;2023-06-14T06:06:57;12.15;;;9.05;;
14847;SDS011;7516;43.570;1.448;2023-06-14T06:09:25;11.88;;;8.70;;
14847;SDS011;7516;43.570;1.448;2023-06-14T06:11:52;11.55;;;9.20;;
14847;SDS011;7516;43.570;1.448;2023-06-14T06:14:21;11.68;;;9.38;;
14847;SDS011;7516;43.570;1.448;2023-06-14T06:16:48;13.60;;;9.93;;
14847;SDS011;7516;43.570;1.448;2023-06-14T06:19:17;14.68;;;9.82;;
14847;SDS011;7516;43.570;1.448;2023-06-14T06:21:45;13.98;;;9.15;;
14847;SDS011;7516;43.570;1.448;2023-06-14T06:24:12;10.30;;;8.80;;
14847;SDS011;7516;43.570;1.448;2023-06-14T06:26:40;10.50;;;8.07;;
14847;SDS011;7516;43.570;1.448;2023-06-14T06:29:07;10.57;;;8.60;;
14847;SDS011;7516;43.570;1.448;2023-06-14T06:31:36;12.35;;;9.88;;
14847;SDS011;7516;43.570;1.448;2023-06-14T06:34:03;12.05;;;9.30;;
14847;SDS011;7516;43.570;1.448;2023-06-14T06:36:31;11.45;;;9.07;;
14847;SDS011;7516;43.570;1.448;2023-06-14T06:38:58;12.65;;;8.43;;
14847;SDS011;7516;43.570;1.448;2023-06-14T06:41:25;11.70;;;9.05;;
14847;SDS011;7516;43.570;1.448;2023-06-14T06:43:53;11.13;;;8.85;;
14847;SDS011;7516;43.570;1.448;2023-06-14T06:46:20;11.55;;;8.20;;
14847;SDS011;7516;43.570;1.448;2023-06-14T06:48:48;11.38;;;8.93;;
14847;SDS011;7516;43.570;1.448;2023-06-14T06:51:16;13.52;;;9.60;;
14847;SDS011;7516;43.570;1.448;2023-06-14T06:53:43;10.73;;;8.60;;
14847;SDS011;7516;43.570;1.448;2023-06-14T06:56:10;11.73;;;9.60;;
14847;SDS011;7516;43.570;1.448;2023-06-14T06:58:37;12.40;;;9.18;;
14847;SDS011;7516;43.570;1.448;2023-06-14T07:01:04;10.27;;;8.40;;
14847;SDS011;7516;43.570;1.448;2023-06-14T07:03:34;13.65;;;9.20;;
14847;SDS011;7516;43.570;1.448;2023-06-14T07:06:03;14.40;;;9.02;;
14847;SDS011;7516;43.570;1.448;2023-06-14T07:08:30;11.65;;;8.82;;
14847;SDS011;7516;43.570;1.448;2023-06-14T07:10:57;11.38;;;8.80;;
14847;SDS011;7516;43.570;1.448;2023-06-14T07:13:24;12.02;;;8.45;;
14847;SDS011;7516;43.570;1.448;2023-06-14T07:15:54;12.55;;;8.43;;
14847;SDS011;7516;43.570;1.448;2023-06-14T07:18:21;11.02;;;8.60;;
14847;SDS011;7516;43.570;1.448;2023-06-14T07:20:49;13.75;;;8.68;;
14847;SDS011;7516;43.570;1.448;2023-06-14T07:23:18;9.93;;;8.05;;
14847;SDS011;7516;43.570;1.448;2023-06-14T07:25:45;10.35;;;8.25;;
14847;SDS011;7516;43.570;1.448;2023-06-14T07:28:13;15.23;;;9.57;;
14847;SDS011;7516;43.570;1.448;2023-06-14T07:30:40;11.52;;;8.23;;
14847;SDS011;7516;43.570;1.448;2023-06-14T07:33:07;10.50;;;7.85;;
14847;SDS011;7516;43.570;1.448;2023-06-14T07:35:36;10.05;;;8.77;;
14847;SDS011;7516;43.570;1.448;2023-06-14T07:38:03;12.23;;;8.88;;
14847;SDS011;7516;43.570;1.448;2023-06-14T07:40:32;11.88;;;8.50;;
14847;SDS011;7516;43.570;1.448;2023-06-14T07:42:59;11.77;;;9.05;;
14847;SDS011;7516;43.570;1.448;2023-06-14T07:45:27;13.95;;;8.80;;
14847;SDS011;7516;43.570;1.448;2023-06-14T07:47:54;13.75;;;9.38;;
14847;SDS011;7516;43.570;1.448;2023-06-14T07:50:22;11.30;;;8.32;;
14847;SDS011;7516;43.570;1.448;2023-06-14T07:52:50;13.27;;;9.73;;
14847;SDS011;7516;43.570;1.448;2023-06-14T07:55:17;12.70;;;8.52;;
14847;SDS011;7516;43.570;1.448;2023-06-14T07:57:46;10.20;;;8.63;;
14847;SDS011;7516;43.570;1.448;2023-06-14T08:00:13;13.85;;;9.00;;
14847;SDS011;7516;43.570;1.448;2023-06-14T08:02:41;11.85;;;8.98;;
14847;SDS011;7516;43.570;1.448;2023-06-14T08:05:09;11.63;;;8.70;;
14847;SDS011;7516;43.570;1.448;2023-06-14T08:07:37;13.68;;;9.45;;
14847;SDS011;7516;43.570;1.448;2023-06-14T08:10:04;12.70;;;8.77;;
14847;SDS011;7516;43.570;1.448;2023-06-14T08:12:31;12.32;;;8.82;;
14847;SDS011;7516;43.570;1.448;2023-06-14T08:15:00;12.85;;;9.40;;
14847;SDS011;7516;43.570;1.448;2023-06-14T08:17:27;10.70;;;8.77;;
14847;SDS011;7516;43.570;1.448;2023-06-14T08:19:54;11.90;;;9.40;;
14847;SDS011;7516;43.570;1.448;2023-06-14T08:22:22;10.90;;;9.25;;
14847;SDS011;7516;43.570;1.448;2023-06-14T08:24:53;14.70;;;9.73;;
14847;SDS011;7516;43.570;1.448;2023-06-14T08:27:20;10.45;;;9.05;;
14847;SDS011;7516;43.570;1.448;2023-06-14T08:29:47;11.98;;;8.55;;
14847;SDS011;7516;43.570;1.448;2023-06-14T08:32:16;13.15;;;8.15;;
14847;SDS011;7516;43.570;1.448;2023-06-14T08:34:43;13.38;;;8.88;;
14847;SDS011;7516;43.570;1.448;2023-06-14T08:37:10;11.77;;;9.15;;
14847;SDS011;7516;43.570;1.448;2023-06-14T08:39:38;11.63;;;8.68;;
14847;SDS011;7516;43.570;1.448;2023-06-14T08:42:06;14.05;;;9.45;;
14847;SDS011;7516;43.570;1.448;2023-06-14T08:44:34;14.30;;;9.55;;
14847;SDS011;7516;43.570;1.448;2023-06-14T08:47:01;15.90;;;9.50;;
14847;SDS011;7516;43.570;1.448;2023-06-14T08:49:31;14.30;;;9.40;;
14847;SDS011;7516;43.570;1.448;2023-06-14T08:51:59;12.30;;;9.35;;
14847;SDS011;7516;43.570;1.448;2023-06-14T08:54:27;13.40;;;9.50;;
14847;SDS011;7516;43.570;1.448;2023-06-14T08:56:56;10.70;;;8.85;;
14847;SDS011;7516;43.570;1.448;2023-06-14T08:59:24;16.67;;;10.35;;
14847;SDS011;7516;43.570;1.448;2023-06-14T09:01:52;10.60;;;7.88;;
14847;SDS011;7516;43.570;1.448;2023-06-14T09:04:20;14.15;;;9.60;;
14847;SDS011;7516;43.570;1.448;2023-06-14T09:06:50;12.82;;;9.75;;
14847;SDS011;7516;43.570;1.448;2023-06-14T09:09:19;13.50;;;9.52;;
14847;SDS011;7516;43.570;1.448;2023-06-14T09:11:48;13.52;;;9.38;;
14847;SDS011;7516;43.570;1.448;2023-06-14T09:14:15;13.27;;;9.75;;
14847;SDS011;7516;43.570;1.448;2023-06-14T09:16:42;12.65;;;9.85;;
14847;SDS011;7516;43.570;1.448;2023-06-14T09:19:10;14.30;;;8.60;;
14847;SDS011;7516;43.570;1.448;2023-06-14T09:21:40;12.27;;;8.98;;
14847;SDS011;7516;43.570;1.448;2023-06-14T09:24:12;14.35;;;9.68;;
14847;SDS011;7516;43.570;1.448;2023-06-14T09:26:40;13.88;;;9.60;;
14847;SDS011;7516;43.570;1.448;2023-06-14T09:29:08;11.57;;;9.32;;
14847;SDS011;7516;43.570;1.448;2023-06-14T09:31:36;16.95;;;9.27;;
14847;SDS011;7516;43.570;1.448;2023-06-14T09:34:04;13.45;;;9.20;;
14847;SDS011;7516;43.570;1.448;2023-06-14T09:36:32;11.70;;;9.85;;
14847;SDS011;7516;43.570;1.448;2023-06-14T09:39:01;14.63;;;9.48;;
14847;SDS011;7516;43.570;1.448;2023-06-14T09:41:33;10.65;;;9.00;;
14847;SDS011;7516;43.570;1.448;2023-06-14T09:44:00;14.90;;;9.38;;
14847;SDS011;7516;43.570;1.448;2023-06-14T09:46:28;13.63;;;9.52;;
14847;SDS011;7516;43.570;1.448;2023-06-14T09:48:56;13.15;;;10.05;;
14847;SDS011;7516;43.570;1.448;2023-06-14T09:51:24;10.93;;;9.15;;
14847;SDS011;7516;43.570;1.448;2023-06-14T09:53:51;15.23;;;9.73;;
14847;SDS011;7516;43.570;1.448;2023-06-14T09:56:21;15.68;;;9.88;;
14847;SDS011;7516;43.570;1.448;2023-06-14T09:58:50;14.75;;;9.30;;
14847;SDS011;7516;43.570;1.448;2023-06-14T10:01:21;13.05;;;9.25;;
14847;SDS011;7516;43.570;1.448;2023-06-14T10:03:50;13.00;;;9.40;;
14847;SDS011;7516;43.570;1.448;2023-06-14T10:06:17;15.88;;;10.43;;
14847;SDS011;7516;43.570;1.448;2023-06-14T10:08:46;13.13;;;9.93;;
14847;SDS011;7516;43.570;1.448;2023-06-14T10:11:14;14.43;;;9.70;;
14847;SDS011;7516;43.570;1.448;2023-06-14T10:13:42;15.73;;;10.70;;
14847;SDS011;7516;43.570;1.448;2023-06-14T10:16:12;15.32;;;9.95;;
14847;SDS011;7516;43.570;1.448;2023-06-14T10:18:43;16.20;;;9.90;;
14847;SDS011;7516;43.570;1.448;2023-06-14T10:21:13;10.73;;;9.38;;
14847;SDS011;7516;43.570;1.448;2023-06-14T10:23:44;13.40;;;9.80;;
14847;SDS011;7516;43.570;1.448;2023-06-14T10:26:19;11.30;;;9.68;;
14847;SDS011;7516;43.570;1.448;2023-06-14T10:28:56;13.15;;;9.38;;
14847;SDS011;7516;43.570;1.448;2023-06-14T10:34:23;12.50;;;9.52;;
14847;SDS011;7516;43.570;1.448;2023-06-14T10:36:59;11.63;;;9.45;;
14847;SDS011;7516;43.570;1.448;2023-06-14T10:39:27;15.48;;;9.38;;
14847;SDS011;7516;43.570;1.448;2023-06-14T10:41:56;11.38;;;9.35;;
14847;SDS011;7516;43.570;1.448;2023-06-14T10:44:39;12.05;;;9.65;;
14847;SDS011;7516;43.570;1.448;2023-06-14T10:47:07;13.13;;;8.85;;
14847;SDS011;7516;43.570;1.448;2023-06-14T10:49:43;13.20;;;9.60;;
14847;SDS011;7516;43.570;1.448;2023-06-14T10:52:11;10.48;;;9.25;;
14847;SDS011;7516;43.570;1.448;2023-06-14T10:54:58;11.68;;;8.80;;
14847;SDS011;7516;43.570;1.448;2023-06-14T10:57:26;11.15;;;9.73;;
14847;SDS011;7516;43.570;1.448;2023-06-14T10:59:53;12.48;;;9.10;;
14847;SDS011;7516;43.570;1.448;2023-06-14T11:02:29;13.43;;;10.10;;
14847;SDS011;7516;43.570;1.448;2023-06-14T11:05:04;12.30;;;9.88;;
14847;SDS011;7516;43.570;1.448;2023-06-14T11:07:38;13.93;;;9.95;;
14847;SDS011;7516;43.570;1.448;2023-06-14T11:10:12;15.50;;;9.55;;
14847;SDS011;7516;43.570;1.448;2023-06-14T11:12:44;10.65;;;8.75;;
14847;SDS011;7516;43.570;1.448;2023-06-14T11:15:13;15.02;;;9.30;;
14847;SDS011;7516;43.570;1.448;2023-06-14T11:17:49;14.63;;;9.63;;
14847;SDS011;7516;43.570;1.448;2023-06-14T11:20:19;13.23;;;9.77;;
14847;SDS011;7516;43.570;1.448;2023-06-14T11:22:47;10.80;;;8.65;;
14847;SDS011;7516;43.570;1.448;2023-06-14T11:25:14;12.30;;;8.68;;
14847;SDS011;7516;43.570;1.448;2023-06-14T11:27:41;10.57;;;9.18;;
14847;SDS011;7516;43.570;1.448;2023-06-14T11:30:09;12.73;;;8.95;;
14847;SDS011;7516;43.570;1.448;2023-06-14T11:32:36;12.82;;;9.35;;
14847;SDS011;7516;43.570;1.448;2023-06-14T11:35:04;12.07;;;9.27;;
14847;SDS011;7516;43.570;1.448;2023-06-14T11:37:33;10.85;;;9.15;;
14847;SDS011;7516;43.570;1.448;2023-06-14T11:40:00;11.05;;;9.40;;
14847;SDS011;7516;43.570;1.448;2023-06-14T11:42:28;16.00;;;9.32;;
14847;SDS011;7516;43.570;1.448;2023-06-14T11:44:56;12.13;;;9.05;;
14847;SDS011;7516;43.570;1.448;2023-06-14T11:47:23;12.55;;;9.18;;
14847;SDS011;7516;43.570;1.448;2023-06-14T11:49:50;12.75;;;8.65;;
14847;SDS011;7516;43.570;1.448;2023-06-14T11:52:17;13.10;;;9.80;;
14847;SDS011;7516;43.570;1.448;2023-06-14T11:54:48;14.43;;;10.10;;
14847;SDS011;7516;43.570;1.448;2023-06-14T11:57:17;11.93;;;9.05;;
14847;SDS011;7516;43.570;1.448;2023-06-14T11:59:44;11.48;;;9.25;;
14847;SDS011;7516;43.570;1.448;2023-06-14T12:02:13;11.65;;;9.15;;
14847;SDS011;7516;43.570;1.448;2023-06-14T12:04:41;10.82;;;9.27;;
14847;SDS011;7516;43.570;1.448;2023-06-14T12:07:08;14.48;;;9.80;;
14847;SDS011;7516;43.570;1.448;2023-06-14T12:09:37;11.02;;;8.52;;
14847;SDS011;7516;43.570;1.448;2023-06-14T12:12:06;13.40;;;9.27;;
14847;SDS011;7516;43.570;1.448;2023-06-14T12:14:34;12.55;;;9.23;;
14847;SDS011;7516;43.570;1.448;2023-06-14T12:17:04;11.90;;;8.88;;
14847;SDS011;7516;43.570;1.448;2023-06-14T12:19:32;11.57;;;9.00;;
14847;SDS011;7516;43.570;1.448;2023-06-14T12:22:00;13.82;;;9.20;;
14847;SDS011;7516;43.570;1.448;2023-06-14T12:24:29;12.55;;;8.57;;
14847;SDS011;7516;43.570;1.448;2023-06-14T12:26:57;12.38;;;9.70;;
14847;SDS011;7516;43.570;1.448;2023-06-14T12:29:26;10.00;;;9.00;;
14847;SDS011;7516;43.570;1.448;2023-06-14T12:31:53;11.00;;;9.20;;
14847;SDS011;7516;43.570;1.448;2023-06-14T12:34:22;12.48;;;9.05;;
14847;SDS011;7516;43.570;1.448;2023-06-14T12:36:49;12.40;;;8.98;;
14847;SDS011;7516;43.570;1.448;2023-06-14T12:39:18;13.25;;;8.82;;
14847;SDS011;7516;43.570;1.448;2023-06-14T12:41:45;11.00;;;8.50;;
14847;SDS011;7516;43.570;1.448;2023-06-14T12:44:13;11.23;;;8.63;;
14847;SDS011;7516;43.570;1.448;2023-06-14T12:46:42;15.55;;;8.60;;
14847;SDS011;7516;43.570;1.448;2023-06-14T12:49:10;9.90;;;8.90;;
14847;SDS011;7516;43.570;1.448;2023-06-14T12:51:37;11.77;;;9.23;;
14847;SDS011;7516;43.570;1.448;2023-06-14T12:54:05;15.15;;;8.52;;
14847;SDS011;7516;43.570;1.448;2023-06-14T12:56:32;12.05;;;8.50;;
14847;SDS011;7516;43.570;1.448;2023-06-14T12:58:59;10.30;;;8.57;;
14847;SDS011;7516;43.570;1.448;2023-06-14T13:01:27;9.65;;;8.65;;
14847;SDS011;7516;43.570;1.448;2023-06-14T13:03:56;11.20;;;9.00;;
14847;SDS011;7516;43.570;1.448;2023-06-14T13:06:23;12.75;;;8.98;;
14847;SDS011;7516;43.570;1.448;2023-06-14T13:08:50;13.80;;;9.27;;
14847;SDS011;7516;43.570;1.448;2023-06-14T13:11:20;11.07;;;8.55;;
14847;SDS011;7516;43.570;1.448;2023-06-14T13:13:47;11.43;;;9.05;;
14847;SDS011;7516;43.570;1.448;2023-06-14T13:16:14;11.10;;;8.75;;
14847;SDS011;7516;43.570;1.448;2023-06-14T13:18:41;11.02;;;8.30;;
14847;SDS011;7516;43.570;1.448;2023-06-14T13:21:10;16.20;;;8.85;;
14847;SDS011;7516;43.570;1.448;2023-06-14T13:23:37;11.23;;;8.88;;
14847;SDS011;7516;43.570;1.448;2023-06-14T13:26:04;16.05;;;8.85;;
14847;SDS011;7516;43.570;1.448;2023-06-14T13:28:32;12.68;;;8.98;;
14847;SDS011;7516;43.570;1.448;2023-06-14T13:31:00;11.25;;;8.10;;
14847;SDS011;7516;43.570;1.448;2023-06-14T13:33:27;10.38;;;8.82;;
14847;SDS011;7516;43.570;1.448;2023-06-14T13:35:54;12.50;;;9.00;;
14847;SDS011;7516;43.570;1.448;2023-06-14T13:38:23;11.00;;;8.68;;
14847;SDS011;7516;43.570;1.448;2023-06-14T13:40:50;13.82;;;8.48;;
14847;SDS011;7516;43.570;1.448;2023-06-14T13:43:17;10.05;;;8.90;;
14847;SDS011;7516;43.570;1.448;2023-06-14T13:45:45;10.85;;;7.78;;
14847;SDS011;7516;43.570;1.448;2023-06-14T13:48:12;11.23;;;8.07;;
14847;SDS011;7516;43.570;1.448;2023-06-14T13:50:39;13.57;;;8.57;;
14847;SDS011;7516;43.570;1.448;2023-06-14T13:53:07;9.90;;;7.70;;
14847;SDS011;7516;43.570;1.448;2023-06-14T13:55:35;11.93;;;8.43;;
14847;SDS011;7516;43.570;1.448;2023-06-14T13:58:03;9.98;;;8.38;;
14847;SDS011;7516;43.570;1.448;2023-06-14T14:00:30;10.95;;;7.70;;
14847;SDS011;7516;43.570;1.448;2023-06-14T14:02:57;10.40;;;8.32;;
14847;SDS011;7516;43.570;1.448;2023-06-14T14:05:25;10.50;;;8.18;;
14847;SDS011;7516;43.570;1.448;2023-06-14T14:07:54;11.93;;;8.27;;
14847;SDS011;7516;43.570;1.448;2023-06-14T14:10:22;12.70;;;8.20;;
14847;SDS011;7516;43.570;1.448;2023-06-14T14:12:51;12.32;;;8.40;;
14847;SDS011;7516;43.570;1.448;2023-06-14T14:15:19;9.75;;;8.35;;
14847;SDS011;7516;43.570;1.448;2023-06-14T14:17:47;12.43;;;8.90;;
14847;SDS011;7516;43.570;1.448;2023-06-14T14:20:15;12.35;;;8.80;;
14847;SDS011;7516;43.570;1.448;2023-06-14T14:22:42;11.95;;;8.63;;
14847;SDS011;7516;43.570;1.448;2023-06-14T14:25:10;11.48;;;8.73;;
14847;SDS011;7516;43.570;1.448;2023-06-14T14:27:37;9.63;;;8.00;;
14847;SDS011;7516;43.570;1.448;2023-06-14T14:30:07;14.82;;;9.10;;
14847;SDS011;7516;43.570;1.448;2023-06-14T14:32:34;12.10;;;8.80;;
14847;SDS011;7516;43.570;1.448;2023-06-14T14:35:02;12.68;;;9.07;;
14847;SDS011;7516;43.570;1.448;2023-06-14T14:37:29;11.70;;;9.18;;
14847;SDS011;7516;43.570;1.448;2023-06-14T14:39:56;16.85;;;8.20;;
14847;SDS011;7516;43.570;1.448;2023-06-14T14:42:24;13.07;;;7.85;;
14847;SDS011;7516;43.570;1.448;2023-06-14T14:44:53;9.82;;;8.85;;
14847;SDS011;7516;43.570;1.448;2023-06-14T14:47:21;13.90;;;8.18;;
14847;SDS011;7516;43.570;1.448;2023-06-14T14:49:49;11.35;;;8.48;;
14847;SDS011;7516;43.570;1.448;2023-06-14T14:52:16;14.05;;;8.05;;
14847;SDS011;7516;43.570;1.448;2023-06-14T14:54:43;11.55;;;8.23;;
14847;SDS011;7516;43.570;1.448;2023-06-14T14:57:10;13.93;;;8.48;;
14847;SDS011;7516;43.570;1.448;2023-06-14T14:59:38;11.75;;;8.15;;
14847;SDS011;7516;43.570;1.448;2023-06-14T15:02:05;13.10;;;8.13;;